sensor_id;sensor_type;location;lat;lon;timestamp;P1;durP1;ratioP1;P2;durP2;ratioP2
9661;SDS011;24982;52.344;12.990;2023-06-14T00:01:00;2.03;;;1.92;;
9661;SDS011;24982;52.344;12.990;2023-06-14T00:04:03;7.03;;;2.08;;
9661;SDS011;24982;52.344;12.990;2023-06-14T00:07:07;2.03;;;1.92;;
9661;SDS011;24982;52.344;12.990;2023-06-14T00:10:09;2.67;;;2.20;;
9661;SDS011;24982;52.344;12.990;2023-06-14T00:13:12;4.45;;;2.40;;
9661;SDS011;24982;52.344;12.990;2023-06-14T00:16:14;2.28;;;1.92;;
9661;SDS011;24982;52.344;12.990;2023-06-14T00:19:17;2.60;;;2.20;;
9661;SDS011;24982;52.344;12.990;2023-06-14T00:22:21;1.77;;;1.77;;
9661;SDS011;24982;52.344;12.990;2023-06-14T00:25:24;3.33;;;2.50;;
9661;SDS011;24982;52.344;12.990;2023-06-14T00:28:26;2.20;;;2.10;;
9661;SDS011;24982;52.344;12.990;2023-06-14T00:31:28;3.42;;;2.03;;
9661;SDS011;24982;52.344;12.990;2023-06-14T00:34:30;2.42;;;2.22;;
9661;SDS011;24982;52.344;12.990;2023-06-14T00:37:34;2.40;;;2.17;;
9661;SDS011;24982;52.344;12.990;2023-06-14T00:40:36;3.75;;;2.20;;
9661;SDS011;24982;52.344;12.990;2023-06-14T00:43:38;2.78;;;2.20;;
9661;SDS011;24982;52.344;12.990;2023-06-14T00:46:40;2.38;;;2.28;;
9661;SDS011;24982;52.344;12.990;2023-06-14T00:49:42;2.13;;;2.00;;
9661;SDS011;24982;52.344;12.990;2023-06-14T00:52:45;2.50;;;2.15;;
9661;SDS011;24982;52.344;12.990;2023-06-14T00:55:47;2.28;;;2.17;;
9661;SDS011;24982;52.344;12.990;2023-06-14T00:58:50;2.47;;;2.28;;
9661;SDS011;24982;52.344;12.990;2023-06-14T01:01:53;3.42;;;2.05;;
9661;SDS011;24982;52.344;12.990;2023-06-14T01:04:55;2.20;;;2.10;;
9661;SDS011;24982;52.344;12.990;2023-06-14T01:08:05;2.72;;;2.53;;
9661;SDS011;24982;52.344;12.990;2023-06-14T01:11:16;2.40;;;2.20;;
9661;SDS011;24982;52.344;12.990;2023-06-14T01:14:23;2.65;;;2.20;;
9661;SDS011;24982;52.344;12.990;2023-06-14T01:17:27;2.33;;;2.20;;
9661;SDS011;24982;52.344;12.990;2023-06-14T01:20:32;2.50;;;2.30;;
9661;SDS011;24982;52.344;12.990;2023-06-14T01:23:39;2.38;;;2.17;;
9661;SDS011;24982;52.344;12.990;2023-06-14T01:26:41;2.75;;;2.55;;
9661;SDS011;24982;52.344;12.990;2023-06-14T01:29:45;1.95;;;1.85;;
9661;SDS011;24982;52.344;12.990;2023-06-14T01:32:49;2.30;;;2.20;;
9661;SDS011;24982;52.344;12.990;2023-06-14T01:35:52;2.47;;;2.38;;
9661;SDS011;24982;52.344;12.990;2023-06-14T01:38:57;2.58;;;2.30;;
9661;SDS011;24982;52.344;12.990;2023-06-14T01:42:02;2.50;;;2.40;;
9661;SDS011;24982;52.344;12.990;2023-06-14T01:45:08;2.60;;;2.45;;
9661;SDS011;24982;52.344;12.990;2023-06-14T01:48:11;2.38;;;2.20;;
9661;SDS011;24982;52.344;12.990;2023-06-14T01:51:14;2.50;;;2.30;;
9661;SDS011;24982;52.344;12.990;2023-06-14T01:54:17;3.38;;;2.50;;
9661;SDS011;24982;52.344;12.990;2023-06-14T01:57:19;2.55;;;2.40;;
9661;SDS011;24982;52.344;12.990;2023-06-14T02:00:22;3.58;;;2.47;;
9661;SDS011;24982;52.344;12.990;2023-06-14T02:03:26;2.42;;;2.30;;
9661;SDS011;24982;52.344;12.990;2023-06-14T02:06:28;3.17;;;2.75;;
9661;SDS011;24982;52.344;12.990;2023-06-14T02:09:31;4.63;;;2.58;;
9661;SDS011;24982;52.344;12.990;2023-06-14T02:12:33;4.15;;;2.70;;
9661;SDS011;24982;52.344;12.990;2023-06-14T02:15:35;3.03;;;2.83;;
9661;SDS011;24982;52.344;12.990;2023-06-14T02:18:37;2.85;;;2.65;;
9661;SDS011;24982;52.344;12.990;2023-06-14T02:21:39;4.68;;;2.90;;
9661;SDS011;24982;52.344;12.990;2023-06-14T02:24:43;4.10;;;2.60;;
9661;SDS011;24982;52.344;12.990;2023-06-14T02:27:45;3.80;;;2.95;;
9661;SDS011;24982;52.344;12.990;2023-06-14T02:30:47;3.05;;;2.85;;
9661;SDS011;24982;52.344;12.990;2023-06-14T02:33:50;5.22;;;2.60;;
9661;SDS011;24982;52.344;12.990;2023-06-14T02:36:52;3.05;;;2.85;;
9661;SDS011;24982;52.344;12.990;2023-06-14T02:39:55;3.10;;;2.90;;
9661;SDS011;24982;52.344;12.990;2023-06-14T02:42:58;2.90;;;2.70;;
9661;SDS011;24982;52.344;12.990;2023-06-14T02:46:00;3.60;;;3.30;;
9661;SDS011;24982;52.344;12.990;2023-06-14T02:49:02;3.35;;;3.13;;
9661;SDS011;24982;52.344;12.990;2023-06-14T02:52:05;3.42;;;3.13;;
9661;SDS011;24982;52.344;12.990;2023-06-14T02:55:10;3.20;;;2.97;;
9661;SDS011;24982;52.344;12.990;2023-06-14T02:58:12;3.20;;;2.88;;
9661;SDS011;24982;52.344;12.990;2023-06-14T03:01:14;3.10;;;2.90;;
9661;SDS011;24982;52.344;12.990;2023-06-14T03:04:17;3.80;;;3.50;;
9661;SDS011;24982;52.344;12.990;2023-06-14T03:07:19;5.20;;;3.35;;
9661;SDS011;24982;52.344;12.990;2023-06-14T03:10:26;3.70;;;3.40;;
9661;SDS011;24982;52.344;12.990;2023-06-14T03:13:30;3.90;;;3.30;;
9661;SDS011;24982;52.344;12.990;2023-06-14T03:16:33;3.55;;;3.25;;
9661;SDS011;24982;52.344;12.990;2023-06-14T03:19:35;4.13;;;3.42;;
9661;SDS011;24982;52.344;12.990;2023-06-14T03:22:39;3.65;;;3.13;;
9661;SDS011;24982;52.344;12.990;2023-06-14T03:25:43;3.47;;;3.28;;
9661;SDS011;24982;52.344;12.990;2023-06-14T03:28:47;3.88;;;3.58;;
9661;SDS011;24982;52.344;12.990;2023-06-14T03:31:58;5.10;;;3.55;;
9661;SDS011;24982;52.344;12.990;2023-06-14T03:35:07;3.80;;;3.50;;
9661;SDS011;24982;52.344;12.990;2023-06-14T03:38:17;3.85;;;3.55;;
9661;SDS011;24982;52.344;12.990;2023-06-14T03:41:20;4.72;;;3.72;;
9661;SDS011;24982;52.344;12.990;2023-06-14T03:44:26;4.07;;;3.67;;
9661;SDS011;24982;52.344;12.990;2023-06-14T03:47:28;4.43;;;4.13;;
9661;SDS011;24982;52.344;12.990;2023-06-14T03:50:31;4.35;;;3.95;;
9661;SDS011;24982;52.344;12.990;2023-06-14T03:53:40;5.20;;;4.07;;
9661;SDS011;24982;52.344;12.990;2023-06-14T03:56:46;4.68;;;3.90;;
9661;SDS011;24982;52.344;12.990;2023-06-14T03:59:48;4.78;;;3.80;;
9661;SDS011;24982;52.344;12.990;2023-06-14T04:02:51;4.20;;;3.80;;
9661;SDS011;24982;52.344;12.990;2023-06-14T04:05:53;5.28;;;3.90;;
9661;SDS011;24982;52.344;12.990;2023-06-14T04:08:58;5.55;;;3.72;;
9661;SDS011;24982;52.344;12.990;2023-06-14T04:12:06;4.50;;;4.00;;
9661;SDS011;24982;52.344;12.990;2023-06-14T04:15:09;4.40;;;3.83;;
9661;SDS011;24982;52.344;12.990;2023-06-14T04:18:12;3.78;;;3.50;;
9661;SDS011;24982;52.344;12.990;2023-06-14T04:21:14;3.97;;;3.63;;
9661;SDS011;24982;52.344;12.990;2023-06-14T04:24:17;4.30;;;3.90;;
9661;SDS011;24982;52.344;12.990;2023-06-14T04:27:23;4.50;;;4.10;;
9661;SDS011;24982;52.344;12.990;2023-06-14T04:30:26;5.03;;;4.13;;
9661;SDS011;24982;52.344;12.990;2023-06-14T04:33:31;4.63;;;4.30;;
9661;SDS011;24982;52.344;12.990;2023-06-14T04:36:34;4.50;;;4.10;;
9661;SDS011;24982;52.344;12.990;2023-06-14T04:39:37;4.63;;;4.30;;
9661;SDS011;24982;52.344;12.990;2023-06-14T04:42:41;4.93;;;4.53;;
9661;SDS011;24982;52.344;12.990;2023-06-14T04:45:46;4.90;;;4.20;;
9661;SDS011;24982;52.344;12.990;2023-06-14T04:48:49;4.93;;;3.95;;
9661;SDS011;24982;52.344;12.990;2023-06-14T04:51:51;4.57;;;4.15;;
9661;SDS011;24982;52.344;12.990;2023-06-14T04:54:59;4.60;;;4.20;;
9661;SDS011;24982;52.344;12.990;2023-06-14T04:58:03;4.78;;;4.32;;
9661;SDS011;24982;52.344;12.990;2023-06-14T05:01:06;5.40;;;4.13;;
9661;SDS011;24982;52.344;12.990;2023-06-14T05:04:10;5.25;;;4.72;;
9661;SDS011;24982;52.344;12.990;2023-06-14T05:07:11;4.78;;;4.32;;
9661;SDS011;24982;52.344;12.990;2023-06-14T05:10:15;4.43;;;3.88;;
9661;SDS011;24982;52.344;12.990;2023-06-14T05:13:19;5.30;;;4.88;;
9661;SDS011;24982;52.344;12.990;2023-06-14T05:16:25;4.60;;;4.20;;
9661;SDS011;24982;52.344;12.990;2023-06-14T05:19:29;5.47;;;4.40;;
9661;SDS011;24982;52.344;12.990;2023-06-14T05:22:31;4.78;;;4.10;;
9661;SDS011;24982;52.344;12.990;2023-06-14T05:25:33;4.40;;;4.10;;
9661;SDS011;24982;52.344;12.990;2023-06-14T05:28:37;4.82;;;4.38;;
9661;SDS011;24982;52.344;12.990;2023-06-14T05:31:41;4.30;;;4.00;;
9661;SDS011;24982;52.344;12.990;2023-06-14T05:34:43;5.53;;;4.00;;
9661;SDS011;24982;52.344;12.990;2023-06-14T05:37:45;4.93;;;4.28;;
9661;SDS011;24982;52.344;12.990;2023-06-14T05:40:48;5.13;;;4.45;;
9661;SDS011;24982;52.344;12.990;2023-06-14T05:43:51;5.03;;;4.13;;
9661;SDS011;24982;52.344;12.990;2023-06-14T05:46:54;4.25;;;3.95;;
9661;SDS011;24982;52.344;12.990;2023-06-14T05:49:56;4.57;;;4.07;;
9661;SDS011;24982;52.344;12.990;2023-06-14T05:52:57;5.63;;;4.22;;
9661;SDS011;24982;52.344;12.990;2023-06-14T05:55:59;4.03;;;3.72;;
9661;SDS011;24982;52.344;12.990;2023-06-14T05:59:03;4.10;;;3.80;;
9661;SDS011;24982;52.344;12.990;2023-06-14T06:02:05;3.92;;;3.63;;
9661;SDS011;24982;52.344;12.990;2023-06-14T06:05:07;5.45;;;5.05;;
9661;SDS011;24982;52.344;12.990;2023-06-14T06:08:09;4.10;;;3.55;;
9661;SDS011;24982;52.344;12.990;2023-06-14T06:11:11;4.10;;;3.70;;
9661;SDS011;24982;52.344;12.990;2023-06-14T06:14:15;5.10;;;4.60;;
9661;SDS011;24982;52.344;12.990;2023-06-14T06:17:17;5.63;;;5.13;;
9661;SDS011;24982;52.344;12.990;2023-06-14T06:20:19;3.90;;;3.60;;
9661;SDS011;24982;52.344;12.990;2023-06-14T06:23:21;4.28;;;3.97;;
9661;SDS011;24982;52.344;12.990;2023-06-14T06:26:23;3.65;;;3.42;;
9661;SDS011;24982;52.344;12.990;2023-06-14T06:29:28;4.25;;;3.95;;
9661;SDS011;24982;52.344;12.990;2023-06-14T06:32:30;4.65;;;3.72;;
9661;SDS011;24982;52.344;12.990;2023-06-14T06:35:32;3.60;;;3.40;;
9661;SDS011;24982;52.344;12.990;2023-06-14T06:38:34;4.15;;;3.50;;
9661;SDS011;24982;52.344;12.990;2023-06-14T06:44:41;3.00;;;2.80;;
9661;SDS011;24982;52.344;12.990;2023-06-14T06:47:43;3.15;;;2.95;;
9661;SDS011;24982;52.344;12.990;2023-06-14T06:50:45;3.75;;;3.30;;
9661;SDS011;24982;52.344;12.990;2023-06-14T06:53:51;2.95;;;2.78;;
9661;SDS011;24982;52.344;12.990;2023-06-14T06:56:54;3.60;;;3.30;;
9661;SDS011;24982;52.344;12.990;2023-06-14T06:59:57;3.55;;;3.35;;
9661;SDS011;24982;52.344;12.990;2023-06-14T07:02:59;3.95;;;3.63;;
9661;SDS011;24982;52.344;12.990;2023-06-14T07:06:01;3.72;;;3.28;;
9661;SDS011;24982;52.344;12.990;2023-06-14T07:09:03;4.65;;;3.38;;
9661;SDS011;24982;52.344;12.990;2023-06-14T07:12:08;3.50;;;3.20;;
9661;SDS011;24982;52.344;12.990;2023-06-14T07:15:13;3.55;;;3.35;;
9661;SDS011;24982;52.344;12.990;2023-06-14T07:18:15;4.20;;;3.80;;
9661;SDS011;24982;52.344;12.990;2023-06-14T07:21:17;5.95;;;3.72;;
9661;SDS011;24982;52.344;12.990;2023-06-14T07:24:19;4.75;;;3.75;;
9661;SDS011;24982;52.344;12.990;2023-06-14T07:27:22;3.90;;;3.60;;
9661;SDS011;24982;52.344;12.990;2023-06-14T07:30:25;5.07;;;4.05;;
9661;SDS011;24982;52.344;12.990;2023-06-14T07:33:27;4.30;;;4.00;;
9661;SDS011;24982;52.344;12.990;2023-06-14T07:36:29;4.40;;;3.53;;
9661;SDS011;24982;52.344;12.990;2023-06-14T07:39:31;4.55;;;4.13;;
9661;SDS011;24982;52.344;12.990;2023-06-14T07:42:33;4.03;;;3.72;;
9661;SDS011;24982;52.344;12.990;2023-06-14T07:45:37;5.28;;;3.75;;
9661;SDS011;24982;52.344;12.990;2023-06-14T07:48:39;5.15;;;3.50;;
9661;SDS011;24982;52.344;12.990;2023-06-14T07:51:41;4.20;;;3.90;;
9661;SDS011;24982;52.344;12.990;2023-06-14T07:54:45;5.13;;;4.13;;
9661;SDS011;24982;52.344;12.990;2023-06-14T07:57:48;4.15;;;3.83;;
9661;SDS011;24982;52.344;12.990;2023-06-14T08:00:52;4.28;;;3.97;;
9661;SDS011;24982;52.344;12.990;2023-06-14T08:03:54;4.85;;;4.35;;
9661;SDS011;24982;52.344;12.990;2023-06-14T08:06:56;5.97;;;4.00;;
9661;SDS011;24982;52.344;12.990;2023-06-14T08:09:59;4.28;;;3.88;;
9661;SDS011;24982;52.344;12.990;2023-06-14T08:13:02;5.53;;;3.90;;
9661;SDS011;24982;52.344;12.990;2023-06-14T08:16:05;5.57;;;3.90;;
9661;SDS011;24982;52.344;12.990;2023-06-14T08:19:07;4.35;;;3.67;;
9661;SDS011;24982;52.344;12.990;2023-06-14T08:22:09;3.92;;;3.63;;
9661;SDS011;24982;52.344;12.990;2023-06-14T08:25:12;4.28;;;3.88;;
9661;SDS011;24982;52.344;12.990;2023-06-14T08:28:15;4.00;;;3.70;;
9661;SDS011;24982;52.344;12.990;2023-06-14T08:31:18;4.40;;;3.90;;
9661;SDS011;24982;52.344;12.990;2023-06-14T08:34:20;4.65;;;4.00;;
9661;SDS011;24982;52.344;12.990;2023-06-14T08:37:23;4.18;;;3.88;;
9661;SDS011;24982;52.344;12.990;2023-06-14T08:40:27;4.15;;;3.88;;
9661;SDS011;24982;52.344;12.990;2023-06-14T08:43:31;4.78;;;4.10;;
9661;SDS011;24982;52.344;12.990;2023-06-14T08:46:35;4.28;;;3.88;;
9661;SDS011;24982;52.344;12.990;2023-06-14T08:49:38;4.25;;;3.58;;
9661;SDS011;24982;52.344;12.990;2023-06-14T08:52:45;4.15;;;3.85;;
9661;SDS011;24982;52.344;12.990;2023-06-14T08:55:50;3.78;;;3.47;;
9661;SDS011;24982;52.344;12.990;2023-06-14T08:58:53;3.40;;;3.20;;
9661;SDS011;24982;52.344;12.990;2023-06-14T09:01:57;3.30;;;3.10;;
9661;SDS011;24982;52.344;12.990;2023-06-14T09:05:00;3.75;;;3.40;;
9661;SDS011;24982;52.344;12.990;2023-06-14T09:08:02;3.72;;;3.42;;
9661;SDS011;24982;52.344;12.990;2023-06-14T09:11:05;3.30;;;3.08;;
9661;SDS011;24982;52.344;12.990;2023-06-14T09:14:07;3.50;;;3.30;;
9661;SDS011;24982;52.344;12.990;2023-06-14T09:17:14;3.40;;;3.10;;
9661;SDS011;24982;52.344;12.990;2023-06-14T09:20:17;4.93;;;3.40;;
9661;SDS011;24982;52.344;12.990;2023-06-14T09:23:20;6.00;;;3.55;;
9661;SDS011;24982;52.344;12.990;2023-06-14T09:26:22;3.50;;;3.30;;
9661;SDS011;24982;52.344;12.990;2023-06-14T09:29:24;4.28;;;3.45;;
9661;SDS011;24982;52.344;12.990;2023-06-14T09:32:29;4.15;;;3.33;;
9661;SDS011;24982;52.344;12.990;2023-06-14T09:35:31;5.95;;;3.47;;
9661;SDS011;24982;52.344;12.990;2023-06-14T09:38:34;5.25;;;3.65;;
9661;SDS011;24982;52.344;12.990;2023-06-14T09:41:36;3.47;;;3.28;;
9661;SDS011;24982;52.344;12.990;2023-06-14T09:44:39;3.53;;;3.25;;
9661;SDS011;24982;52.344;12.990;2023-06-14T09:47:43;3.80;;;3.25;;
9661;SDS011;24982;52.344;12.990;2023-06-14T09:50:45;3.42;;;3.22;;
9661;SDS011;24982;52.344;12.990;2023-06-14T09:53:49;3.60;;;3.33;;
9661;SDS011;24982;52.344;12.990;2023-06-14T09:56:51;7.45;;;3.55;;
9661;SDS011;24982;52.344;12.990;2023-06-14T09:59:56;3.45;;;3.08;;
9661;SDS011;24982;52.344;12.990;2023-06-14T10:03:03;4.20;;;3.75;;
9661;SDS011;24982;52.344;12.990;2023-06-14T10:06:11;3.53;;;3.25;;
9661;SDS011;24982;52.344;12.990;2023-06-14T10:09:13;3.22;;;2.95;;
9661;SDS011;24982;52.344;12.990;2023-06-14T10:12:16;4.15;;;3.10;;
9661;SDS011;24982;52.344;12.990;2023-06-14T10:15:23;3.50;;;3.05;;
9661;SDS011;24982;52.344;12.990;2023-06-14T10:18:35;3.42;;;3.03;;
9661;SDS011;24982;52.344;12.990;2023-06-14T10:21:46;4.20;;;2.90;;
9661;SDS011;24982;52.344;12.990;2023-06-14T10:24:56;4.18;;;3.15;;
9661;SDS011;24982;52.344;12.990;2023-06-14T10:28:14;4.15;;;3.20;;
9661;SDS011;24982;52.344;12.990;2023-06-14T10:31:18;5.65;;;3.20;;
9661;SDS011;24982;52.344;12.990;2023-06-14T10:34:22;5.88;;;3.15;;
9661;SDS011;24982;52.344;12.990;2023-06-14T10:37:25;3.45;;;3.13;;
9661;SDS011;24982;52.344;12.990;2023-06-14T10:40:30;5.00;;;3.28;;
9661;SDS011;24982;52.344;12.990;2023-06-14T10:43:32;6.75;;;3.30;;
9661;SDS011;24982;52.344;12.990;2023-06-14T10:46:34;3.53;;;3.00;;
9661;SDS011;24982;52.344;12.990;2023-06-14T10:49:38;3.25;;;2.95;;
9661;SDS011;24982;52.344;12.990;2023-06-14T10:52:42;4.53;;;3.10;;
9661;SDS011;24982;52.344;12.990;2023-06-14T10:55:45;3.30;;;3.08;;
9661;SDS011;24982;52.344;12.990;2023-06-14T10:58:47;3.60;;;3.30;;
9661;SDS011;24982;52.344;12.990;2023-06-14T11:01:52;4.68;;;3.47;;
9661;SDS011;24982;52.344;12.990;2023-06-14T11:05:04;4.32;;;3.25;;
9661;SDS011;24982;52.344;12.990;2023-06-14T11:11:47;7.70;;;3.35;;
9661;SDS011;24982;52.344;12.990;2023-06-14T11:14:50;4.90;;;2.80;;
9661;SDS011;24982;52.344;12.990;2023-06-14T11:17:53;3.35;;;3.05;;
9661;SDS011;24982;52.344;12.990;2023-06-14T11:20:58;4.28;;;2.80;;
9661;SDS011;24982;52.344;12.990;2023-06-14T11:24:00;3.40;;;2.80;;
9661;SDS011;24982;52.344;12.990;2023-06-14T11:27:02;3.55;;;3.25;;
9661;SDS011;24982;52.344;12.990;2023-06-14T11:30:07;3.33;;;3.00;;
9661;SDS011;24982;52.344;12.990;2023-06-14T11:33:09;9.73;;;3.00;;
9661;SDS011;24982;52.344;12.990;2023-06-14T11:36:13;3.83;;;3.03;;
9661;SDS011;24982;52.344;12.990;2023-06-14T11:39:17;8.65;;;2.90;;
9661;SDS011;24982;52.344;12.990;2023-06-14T11:42:19;4.63;;;2.80;;
9661;SDS011;24982;52.344;12.990;2023-06-14T11:45:21;6.47;;;3.30;;
9661;SDS011;24982;52.344;12.990;2023-06-14T11:48:23;3.53;;;3.17;;
9661;SDS011;24982;52.344;12.990;2023-06-14T11:51:26;4.22;;;2.95;;
9661;SDS011;24982;52.344;12.990;2023-06-14T11:54:28;4.00;;;3.22;;
9661;SDS011;24982;52.344;12.990;2023-06-14T11:57:30;3.90;;;2.90;;
9661;SDS011;24982;52.344;12.990;2023-06-14T12:00:35;4.55;;;3.30;;
9661;SDS011;24982;52.344;12.990;2023-06-14T12:03:38;7.13;;;3.30;;
9661;SDS011;24982;52.344;12.990;2023-06-14T12:06:51;5.80;;;3.10;;
9661;SDS011;24982;52.344;12.990;2023-06-14T12:10:05;7.30;;;3.00;;
9661;SDS011;24982;52.344;12.990;2023-06-14T12:13:09;4.93;;;3.55;;
9661;SDS011;24982;52.344;12.990;2023-06-14T12:16:12;7.22;;;3.15;;
9661;SDS011;24982;52.344;12.990;2023-06-14T12:19:14;4.22;;;2.92;;
9661;SDS011;24982;52.344;12.990;2023-06-14T12:22:19;3.45;;;2.90;;
9661;SDS011;24982;52.344;12.990;2023-06-14T12:25:23;3.05;;;2.78;;
9661;SDS011;24982;52.344;12.990;2023-06-14T12:28:30;4.68;;;3.20;;
9661;SDS011;24982;52.344;12.990;2023-06-14T12:31:33;4.10;;;2.88;;
9661;SDS011;24982;52.344;12.990;2023-06-14T12:34:35;3.03;;;2.83;;
9661;SDS011;24982;52.344;12.990;2023-06-14T12:37:39;5.47;;;3.22;;
9661;SDS011;24982;52.344;12.990;2023-06-14T12:40:41;6.10;;;3.40;;
9661;SDS011;24982;52.344;12.990;2023-06-14T12:43:43;4.60;;;3.10;;
9661;SDS011;24982;52.344;12.990;2023-06-14T12:46:45;4.78;;;3.10;;
9661;SDS011;24982;52.344;12.990;2023-06-14T12:49:47;3.45;;;3.13;;
9661;SDS011;24982;52.344;12.990;2023-06-14T12:52:51;4.70;;;2.97;;
9661;SDS011;24982;52.344;12.990;2023-06-14T12:55:53;4.65;;;3.05;;
9661;SDS011;24982;52.344;12.990;2023-06-14T12:58:55;6.00;;;3.00;;
9661;SDS011;24982;52.344;12.990;2023-06-14T13:01:58;3.42;;;3.10;;
9661;SDS011;24982;52.344;12.990;2023-06-14T13:05:01;6.18;;;3.08;;
9661;SDS011;24982;52.344;12.990;2023-06-14T13:08:06;4.43;;;3.30;;
9661;SDS011;24982;52.344;12.990;2023-06-14T13:11:09;3.33;;;2.97;;
9661;SDS011;24982;52.344;12.990;2023-06-14T13:14:13;5.20;;;3.25;;
9661;SDS011;24982;52.344;12.990;2023-06-14T13:17:15;3.30;;;3.00;;
9661;SDS011;24982;52.344;12.990;2023-06-14T13:20:19;5.82;;;3.90;;
9661;SDS011;24982;52.344;12.990;2023-06-14T13:23:23;3.17;;;2.90;;
9661;SDS011;24982;52.344;12.990;2023-06-14T13:26:25;6.53;;;3.30;;
9661;SDS011;24982;52.344;12.990;2023-06-14T13:29:28;5.38;;;3.25;;
9661;SDS011;24982;52.344;12.990;2023-06-14T13:32:31;3.92;;;3.60;;
9661;SDS011;24982;52.344;12.990;2023-06-14T13:35:33;7.63;;;3.78;;
9661;SDS011;24982;52.344;12.990;2023-06-14T13:38:36;5.60;;;3.50;;
9661;SDS011;24982;52.344;12.990;2023-06-14T13:41:38;8.27;;;3.35;;
9661;SDS011;24982;52.344;12.990;2023-06-14T13:44:40;4.40;;;3.60;;
9661;SDS011;24982;52.344;12.990;2023-06-14T13:47:42;7.97;;;3.65;;
9661;SDS011;24982;52.344;12.990;2023-06-14T13:50:45;7.20;;;3.80;;
9661;SDS011;24982;52.344;12.990;2023-06-14T13:53:49;6.18;;;3.63;;
9661;SDS011;24982;52.344;12.990;2023-06-14T13:56:51;4.60;;;3.55;;
9661;SDS011;24982;52.344;12.990;2023-06-14T13:59:53;8.77;;;3.38;;
9661;SDS011;24982;52.344;12.990;2023-06-14T14:03:01;7.90;;;3.28;;
9661;SDS011;24982;52.344;12.990;2023-06-14T14:06:04;3.72;;;3.38;;
9661;SDS011;24982;52.344;12.990;2023-06-14T14:09:08;6.07;;;3.22;;
9661;SDS011;24982;52.344;12.990;2023-06-14T14:12:10;7.90;;;3.80;;
9661;SDS011;24982;52.344;12.990;2023-06-14T14:15:12;6.53;;;3.72;;
9661;SDS011;24982;52.344;12.990;2023-06-14T14:18:14;4.95;;;3.40;;
9661;SDS011;24982;52.344;12.990;2023-06-14T14:21:17;5.95;;;3.50;;
9661;SDS011;24982;52.344;12.990;2023-06-14T14:24:20;3.47;;;2.90;;
9661;SDS011;24982;52.344;12.990;2023-06-14T14:27:25;7.28;;;3.85;;
9661;SDS011;24982;52.344;12.990;2023-06-14T14:30:28;10.57;;;3.10;;
9661;SDS011;24982;52.344;12.990;2023-06-14T14:33:30;4.80;;;3.25;;
9661;SDS011;24982;52.344;12.990;2023-06-14T14:36:32;5.60;;;3.15;;
9661;SDS011;24982;52.344;12.990;2023-06-14T14:39:39;11.65;;;4.90;;
9661;SDS011;24982;52.344;12.990;2023-06-14T14:42:41;5.28;;;3.42;;
9661;SDS011;24982;52.344;12.990;2023-06-14T14:45:46;3.58;;;2.95;;
9661;SDS011;24982;52.344;12.990;2023-06-14T14:48:48;4.82;;;3.03;;
9661;SDS011;24982;52.344;12.990;2023-06-14T14:51:50;3.75;;;3.00;;
9661;SDS011;24982;52.344;12.990;2023-06-14T14:54:53;5.15;;;3.20;;
9661;SDS011;24982;52.344;12.990;2023-06-14T14:57:55;5.43;;;3.38;;
9661;SDS011;24982;52.344;12.990;2023-06-14T15:00:57;5.05;;;3.28;;
9661;SDS011;24982;52.344;12.990;2023-06-14T15:03:59;4.93;;;3.13;;
9661;SDS011;24982;52.344;12.990;2023-06-14T15:07:01;4.10;;;2.95;;
9661;SDS011;24982;52.344;12.990;2023-06-14T15:10:06;6.15;;;3.15;;
9661;SDS011;24982;52.344;12.990;2023-06-14T15:13:11;6.13;;;3.13;;
9661;SDS011;24982;52.344;12.990;2023-06-14T15:16:13;3.40;;;3.10;;
9661;SDS011;24982;52.344;12.990;2023-06-14T15:19:17;6.43;;;3.50;;
9661;SDS011;24982;52.344;12.990;2023-06-14T15:22:19;6.65;;;3.22;;
9661;SDS011;24982;52.344;12.990;2023-06-14T15:25:22;6.85;;;3.80;;
9661;SDS011;24982;52.344;12.990;2023-06-14T15:28:24;3.92;;;3.30;;
9661;SDS011;24982;52.344;12.990;2023-06-14T15:31:28;6.00;;;3.30;;
9661;SDS011;24982;52.344;12.990;2023-06-14T15:34:31;5.18;;;3.22;;
9661;SDS011;24982;52.344;12.990;2023-06-14T15:37:33;5.07;;;3.60;;
9661;SDS011;24982;52.344;12.990;2023-06-14T15:40:36;4.10;;;3.25;;
9661;SDS011;24982;52.344;12.990;2023-06-14T15:43:38;3.58;;;3.30;;
9661;SDS011;24982;52.344;12.990;2023-06-14T15:46:40;4.50;;;3.95;;
9661;SDS011;24982;52.344;12.990;2023-06-14T15:49:42;4.00;;;3.60;;
9661;SDS011;24982;52.344;12.990;2023-06-14T15:52:44;6.90;;;3.10;;
9661;SDS011;24982;52.344;12.990;2023-06-14T15:55:48;3.28;;;3.08;;
9661;SDS011;24982;52.344;12.990;2023-06-14T15:58:50;5.28;;;3.40;;
9661;SDS011;24982;52.344;12.990;2023-06-14T16:01:52;3.70;;;3.13;;
9661;SDS011;24982;52.344;12.990;2023-06-14T16:04:54;4.60;;;3.20;;
9661;SDS011;24982;52.344;12.990;2023-06-14T16:07:56;3.85;;;3.40;;
9661;SDS011;24982;52.344;12.990;2023-06-14T16:10:59;4.70;;;3.08;;
9661;SDS011;24982;52.344;12.990;2023-06-14T16:14:01;6.00;;;3.05;;
9661;SDS011;24982;52.344;12.990;2023-06-14T16:17:04;5.22;;;3.08;;
9661;SDS011;24982;52.344;12.990;2023-06-14T16:20:07;7.03;;;3.50;;
9661;SDS011;24982;52.344;12.990;2023-06-14T16:23:10;3.92;;;3.60;;
9661;SDS011;24982;52.344;12.990;2023-06-14T16:26:14;6.50;;;3.05;;
9661;SDS011;24982;52.344;12.990;2023-06-14T16:29:16;4.03;;;3.35;;
9661;SDS011;24982;52.344;12.990;2023-06-14T16:32:19;3.83;;;3.20;;
9661;SDS011;24982;52.344;12.990;2023-06-14T16:35:21;4.03;;;3.13;;
9661;SDS011;24982;52.344;12.990;2023-06-14T16:38:23;6.03;;;3.35;;
9661;SDS011;24982;52.344;12.990;2023-06-14T16:41:26;5.60;;;3.08;;
9661;SDS011;24982;52.344;12.990;2023-06-14T16:44:28;3.17;;;2.85;;
9661;SDS011;24982;52.344;12.990;2023-06-14T16:47:30;9.60;;;3.47;;
9661;SDS011;24982;52.344;12.990;2023-06-14T16:50:32;3.65;;;3.00;;
9661;SDS011;24982;52.344;12.990;2023-06-14T16:53:35;4.22;;;3.22;;
9661;SDS011;24982;52.344;12.990;2023-06-14T16:56:38;9.38;;;3.13;;
9661;SDS011;24982;52.344;12.990;2023-06-14T16:59:40;3.45;;;3.15;;
9661;SDS011;24982;52.344;12.990;2023-06-14T17:02:42;3.05;;;2.92;;
9661;SDS011;24982;52.344;12.990;2023-06-14T17:05:55;5.55;;;3.28;;
9661;SDS011;24982;52.344;12.990;2023-06-14T17:08:57;6.28;;;3.63;;
9661;SDS011;24982;52.344;12.990;2023-06-14T17:12:01;3.80;;;2.90;;
9661;SDS011;24982;52.344;12.990;2023-06-14T17:15:04;4.68;;;3.22;;
9661;SDS011;24982;52.344;12.990;2023-06-14T17:18:06;3.63;;;2.92;;
9661;SDS011;24982;52.344;12.990;2023-06-14T17:21:08;4.85;;;3.10;;
9661;SDS011;24982;52.344;12.990;2023-06-14T17:24:10;3.25;;;2.95;;
9661;SDS011;24982;52.344;12.990;2023-06-14T17:27:14;3.60;;;3.30;;
9661;SDS011;24982;52.344;12.990;2023-06-14T17:30:16;3.47;;;3.08;;
9661;SDS011;24982;52.344;12.990;2023-06-14T17:33:18;3.08;;;2.88;;
9661;SDS011;24982;52.344;12.990;2023-06-14T17:36:20;3.53;;;2.78;;
9661;SDS011;24982;52.344;12.990;2023-06-14T17:39:22;3.67;;;3.00;;
9661;SDS011;24982;52.344;12.990;2023-06-14T17:42:26;4.00;;;3.60;;
9661;SDS011;24982;52.344;12.990;2023-06-14T17:45:28;3.72;;;3.20;;
9661;SDS011;24982;52.344;12.990;2023-06-14T17:48:30;5.75;;;3.17;;
9661;SDS011;24982;52.344;12.990;2023-06-14T17:51:33;6.32;;;3.53;;
9661;SDS011;24982;52.344;12.990;2023-06-14T17:54:38;4.20;;;3.50;;
9661;SDS011;24982;52.344;12.990;2023-06-14T17:57:41;6.07;;;3.10;;
9661;SDS011;24982;52.344;12.990;2023-06-14T18:00:43;4.10;;;3.50;;
9661;SDS011;24982;52.344;12.990;2023-06-14T18:03:45;3.70;;;3.40;;
9661;SDS011;24982;52.344;12.990;2023-06-14T18:06:47;3.90;;;3.30;;
9661;SDS011;24982;52.344;12.990;2023-06-14T18:09:49;7.53;;;3.25;;
9661;SDS011;24982;52.344;12.990;2023-06-14T18:12:53;5.90;;;3.17;;
9661;SDS011;24982;52.344;12.990;2023-06-14T18:15:56;3.45;;;3.15;;
9661;SDS011;24982;52.344;12.990;2023-06-14T18:18:58;3.58;;;3.33;;
9661;SDS011;24982;52.344;12.990;2023-06-14T18:22:00;3.75;;;3.28;;
9661;SDS011;24982;52.344;12.990;2023-06-14T18:25:03;5.20;;;3.40;;
9661;SDS011;24982;52.344;12.990;2023-06-14T18:28:10;6.75;;;5.25;;
9661;SDS011;24982;52.344;12.990;2023-06-14T18:31:12;6.90;;;4.15;;